createdAt,value
2022-09-17T00:02:14.722Z,12.14
2022-09-17T00:04:44.453Z,12.14
2022-09-17T00:07:13.901Z,11.98
2022-09-17T00:09:44.144Z,12.13
2022-09-17T00:12:13.862Z,12.24
2022-09-17T00:14:43.593Z,12.12
2022-09-17T00:17:13.348Z,11.99
2022-09-17T00:19:42.786Z,12.10
2022-09-17T00:22:13.076Z,12.20
2022-09-17T00:24:42.968Z,12.24
2022-09-17T00:27:12.800Z,12.18
2022-09-17T00:29:42.576Z,11.96
2022-09-17T00:32:12.605Z,11.96
2022-09-17T00:34:43.237Z,12.16
2022-09-17T00:37:13.294Z,12.09
2022-09-17T00:39:43.131Z,12.12
2022-09-17T00:42:17.276Z,12.14
2022-09-17T00:44:52.855Z,12.06
2022-09-17T00:47:25.545Z,12.10
2022-09-17T00:49:58.348Z,12.19
2022-09-17T00:52:31.624Z,12.08
2022-09-17T00:55:10.586Z,12.23
2022-09-17T00:57:42.190Z,12.21
2022-09-17T01:00:15.718Z,12.42
2022-09-17T01:02:45.949Z,12.42
2022-09-17T01:05:16.138Z,12.41
2022-09-17T01:08:00.732Z,12.17
2022-09-17T01:10:49.843Z,12.18
2022-09-17T01:13:22.784Z,12.00
2022-09-17T01:16:10.373Z,11.98
2022-09-17T01:18:55.089Z,12.02
2022-09-17T01:21:53.166Z,12.14
2022-09-17T01:24:31.504Z,12.02
2022-09-17T01:27:19.384Z,12.14
2022-09-17T01:30:06.502Z,12.06
2022-09-17T01:32:47.939Z,11.87
2022-09-17T01:35:20.815Z,11.85
2022-09-17T01:38:18.984Z,12.07
2022-09-17T01:40:57.311Z,11.96
2022-09-17T01:43:32.820Z,11.91
2022-09-17T01:46:20.459Z,11.99
2022-09-17T01:48:53.407Z,11.87
2022-09-17T01:51:26.160Z,11.93
2022-09-17T01:53:59.040Z,11.74
2022-09-17T01:56:34.548Z,11.74
2022-09-17T01:59:13.563Z,11.84
2022-09-17T02:01:45.244Z,11.71
2022-09-17T02:04:20.535Z,11.87
2022-09-17T02:06:53.608Z,11.76
2022-09-17T02:09:26.672Z,11.94
2022-09-17T02:11:59.635Z,11.96
2022-09-17T02:14:32.405Z,11.84
2022-09-17T02:17:07.985Z,11.85
2022-09-17T02:19:39.301Z,11.85
2022-09-17T02:22:18.982Z,11.80
2022-09-17T02:25:13.445Z,11.84
2022-09-17T02:27:57.688Z,11.89
2022-09-17T02:30:27.686Z,11.92
2022-09-17T02:32:57.568Z,11.57
2022-09-17T02:35:27.442Z,11.57
2022-09-17T02:37:57.190Z,11.61
2022-09-17T02:40:30.400Z,11.59
2022-09-17T02:43:37.956Z,11.62
2022-09-17T02:46:30.180Z,11.74
2022-09-17T02:49:11.509Z,11.71
2022-09-17T02:52:12.271Z,11.70
2022-09-17T02:55:23.260Z,11.67
2022-09-17T02:58:10.960Z,11.70
2022-09-17T03:00:41.779Z,11.57
2022-09-17T03:03:17.612Z,11.66
2022-09-17T03:05:48.489Z,11.69
2022-09-17T03:08:20.315Z,11.56
2022-09-17T03:10:50.261Z,11.64
2022-09-17T03:13:19.997Z,11.61
2022-09-17T03:15:49.867Z,11.47
2022-09-17T03:18:19.614Z,11.33
2022-09-17T03:20:49.357Z,11.48
2022-09-17T03:23:19.098Z,11.36
2022-09-17T03:25:49.549Z,11.48
2022-09-17T03:28:19.145Z,11.25
2022-09-17T03:30:48.746Z,11.31
2022-09-17T03:33:18.562Z,11.45
2022-09-17T03:35:48.382Z,11.31
2022-09-17T03:38:18.517Z,11.31
2022-09-17T03:40:53.992Z,11.30
2022-09-17T03:43:23.457Z,11.29
2022-09-17T03:45:53.542Z,11.25
2022-09-17T03:48:23.792Z,11.50
2022-09-17T03:50:53.238Z,11.36
2022-09-17T03:53:22.952Z,11.30
2022-09-17T03:55:52.711Z,11.30
2022-09-17T03:58:22.178Z,11.30
2022-09-17T04:00:56.669Z,11.30
2022-09-17T04:03:28.939Z,11.19
2022-09-17T04:05:58.472Z,11.28
2022-09-17T04:08:27.968Z,11.36
2022-09-17T04:10:57.780Z,11.32
2022-09-17T04:13:27.856Z,11.25
2022-09-17T04:15:57.709Z,11.26
2022-09-17T04:18:27.512Z,11.31
2022-09-17T04:20:57.315Z,11.23
2022-09-17T04:23:27.369Z,11.25
2022-09-17T04:25:57.280Z,11.28
2022-09-17T04:28:26.796Z,11.16
2022-09-17T04:30:57.619Z,11.23
2022-09-17T04:33:27.640Z,11.26
2022-09-17T04:35:57.727Z,11.24
2022-09-17T04:38:27.531Z,11.25
2022-09-17T04:40:57.365Z,11.07
2022-09-17T04:43:27.288Z,11.03
2022-09-17T04:45:57.016Z,11.04
2022-09-17T04:48:26.448Z,11.00
2022-09-17T04:50:55.935Z,10.96
2022-09-17T04:53:26.117Z,11.23
2022-09-17T04:55:55.858Z,11.28
2022-09-17T04:58:25.582Z,11.28
2022-09-17T05:00:55.446Z,11.20
2022-09-17T05:03:25.204Z,11.39
2022-09-17T05:05:54.973Z,11.32
2022-09-17T05:08:25.279Z,11.31
2022-09-17T05:10:55.325Z,11.31
2022-09-17T05:13:25.054Z,11.20
2022-09-17T05:15:59.194Z,11.19
2022-09-17T05:18:29.024Z,11.19
2022-09-17T05:20:58.776Z,11.07
2022-09-17T05:23:29.304Z,11.21
2022-09-17T05:26:02.536Z,11.09
2022-09-17T05:28:32.256Z,11.22
2022-09-17T05:31:02.918Z,11.11
2022-09-17T05:33:33.043Z,11.25
2022-09-17T05:36:03.031Z,11.27
2022-09-17T05:38:32.764Z,11.19
2022-09-17T05:41:07.623Z,11.23
2022-09-17T05:43:37.661Z,11.30
2022-09-17T05:46:08.491Z,11.19
2022-09-17T05:48:38.668Z,11.23
2022-09-17T05:51:08.389Z,11.23
2022-09-17T05:53:38.219Z,11.18
2022-09-17T05:56:09.876Z,11.21
2022-09-17T05:58:39.702Z,11.33
2022-09-17T06:01:11.117Z,11.48
2022-09-17T06:03:40.894Z,11.64
2022-09-17T06:06:11.290Z,11.48
2022-09-17T06:08:41.053Z,11.48
2022-09-17T06:11:11.112Z,11.42
2022-09-17T06:13:42.482Z,11.48
2022-09-17T06:16:12.194Z,11.69
2022-09-17T06:18:41.989Z,11.83
2022-09-17T06:21:12.077Z,11.59
2022-09-17T06:23:43.388Z,11.92
2022-09-17T06:26:13.175Z,11.94
2022-09-17T06:28:43.085Z,12.09
2022-09-17T06:31:15.028Z,12.08
2022-09-17T06:33:44.812Z,12.29
2022-09-17T06:36:14.914Z,12.50
2022-09-17T06:38:44.674Z,12.46
2022-09-17T06:41:14.979Z,12.38
2022-09-17T06:43:45.058Z,12.46
2022-09-17T06:46:15.050Z,12.56
2022-09-17T06:48:44.795Z,12.56
2022-09-17T06:51:14.978Z,12.49
2022-09-17T06:53:44.778Z,12.80
2022-09-17T06:56:14.514Z,12.98
2022-09-17T06:58:44.335Z,12.98
2022-09-17T07:01:15.177Z,13.05
2022-09-17T07:03:45.026Z,13.22
2022-09-17T07:06:14.790Z,13.26
2022-09-17T07:08:44.906Z,13.50
2022-09-17T07:11:19.309Z,13.72
2022-09-17T07:13:49.023Z,14.06
2022-09-17T07:16:19.682Z,14.13
2022-09-17T07:18:49.421Z,14.12
2022-09-17T07:21:19.423Z,13.77
2022-09-17T07:23:49.160Z,14.26
2022-09-17T07:26:18.985Z,14.35
2022-09-17T07:28:48.776Z,14.38
2022-09-17T07:31:18.541Z,14.14
2022-09-17T07:33:48.539Z,14.32
2022-09-17T07:36:18.723Z,14.33
2022-09-17T07:38:48.570Z,14.59
2022-09-17T07:41:19.128Z,14.94
2022-09-17T07:43:48.940Z,15.28
2022-09-17T07:46:20.726Z,15.08
2022-09-17T07:48:51.703Z,15.13
2022-09-17T07:51:24.468Z,15.43
2022-09-17T07:53:55.897Z,15.08
2022-09-17T07:56:26.929Z,15.56
2022-09-17T07:58:57.176Z,15.82
2022-09-17T08:01:27.332Z,15.86
2022-09-17T08:03:57.072Z,15.63
2022-09-17T08:06:30.993Z,15.77
2022-09-17T08:09:01.162Z,15.74
2022-09-17T08:11:56.158Z,15.71
2022-09-17T08:14:04.815Z,15.55
2022-09-17T08:16:34.617Z,15.45
2022-09-17T08:19:04.447Z,15.57
2022-09-17T08:21:34.177Z,15.74
2022-09-17T08:24:04.074Z,15.25
2022-09-17T08:26:33.842Z,15.62
2022-09-17T08:29:03.623Z,15.56
2022-09-17T08:31:33.656Z,15.64
2022-09-17T08:34:05.227Z,15.77
2022-09-17T08:36:34.972Z,15.65
2022-09-17T08:39:04.825Z,15.49
2022-09-17T08:41:37.897Z,15.29
2022-09-17T08:44:22.887Z,15.25
2022-09-17T08:47:01.790Z,15.25
2022-09-17T08:49:34.851Z,15.81
2022-09-17T08:52:41.707Z,15.88
2022-09-17T08:55:17.196Z,15.66
2022-09-17T08:57:55.604Z,15.78
2022-09-17T09:00:26.586Z,16.07
2022-09-17T09:03:08.661Z,16.49
2022-09-17T09:05:56.285Z,16.21
2022-09-17T09:08:37.758Z,16.21
2022-09-17T09:11:10.028Z,16.72
2022-09-17T09:13:45.855Z,17.03
2022-09-17T09:16:18.844Z,15.99
2022-09-17T09:18:51.457Z,16.01
2022-09-17T09:21:39.052Z,16.01
2022-09-17T09:24:25.995Z,16.06
2022-09-17T09:27:13.136Z,16.45
2022-09-17T09:30:02.657Z,16.95
2022-09-17T09:33:06.675Z,17.40
2022-09-17T09:35:39.456Z,17.40
2022-09-17T09:38:16.832Z,17.07
2022-09-17T09:40:49.353Z,16.13
2022-09-17T09:43:22.198Z,14.19
2022-09-17T09:45:57.796Z,13.95
2022-09-17T09:48:38.717Z,13.78
2022-09-17T09:51:13.992Z,13.71
2022-09-17T09:54:02.716Z,14.24
2022-09-17T09:56:41.325Z,14.74
2022-09-17T09:59:13.509Z,15.37
2022-09-17T10:01:45.063Z,15.92
2022-09-17T10:04:23.644Z,15.99
2022-09-17T10:07:05.696Z,15.84
2022-09-17T10:09:37.641Z,16.20
2022-09-17T10:12:14.859Z,16.27
2022-09-17T10:14:47.259Z,16.22
2022-09-17T10:17:23.003Z,16.50
2022-09-17T10:20:11.917Z,17.07
2022-09-17T10:22:48.627Z,17.37
2022-09-17T10:25:36.095Z,17.35
2022-09-17T10:28:11.106Z,17.56
2022-09-17T10:30:43.529Z,17.55
2022-09-17T10:33:18.881Z,17.70
2022-09-17T10:36:06.263Z,17.75
2022-09-17T10:38:41.057Z,18.46
2022-09-17T10:41:13.833Z,18.36
2022-09-17T10:43:43.919Z,18.71
2022-09-17T10:46:27.850Z,19.15
2022-09-17T10:49:11.851Z,18.73
2022-09-17T10:51:42.093Z,18.25
2022-09-17T10:54:17.965Z,16.81
2022-09-17T10:56:50.443Z,17.07
2022-09-17T10:59:39.816Z,16.63
2022-09-17T11:02:26.178Z,16.73
2022-09-17T11:05:01.522Z,16.86
2022-09-17T11:07:46.338Z,16.90
2022-09-17T11:10:24.716Z,17.04
2022-09-17T11:13:08.715Z,16.93
2022-09-17T11:15:52.192Z,17.11
2022-09-17T11:18:33.550Z,17.48
2022-09-17T11:21:21.324Z,17.67
2022-09-17T11:24:22.491Z,17.14
2022-09-17T11:27:10.155Z,17.89
2022-09-17T11:30:11.541Z,17.87
2022-09-17T11:32:52.811Z,17.77
2022-09-17T11:35:25.590Z,18.08
2022-09-17T11:38:00.069Z,17.56
2022-09-17T11:40:47.498Z,17.45
2022-09-17T11:43:37.850Z,17.55
2022-09-17T11:46:12.580Z,18.18
2022-09-17T11:49:08.890Z,18.11
2022-09-17T11:51:44.780Z,18.50
2022-09-17T11:54:25.720Z,18.64
2022-09-17T11:57:16.303Z,18.70
2022-09-17T11:59:51.855Z,19.12
2022-09-17T12:02:56.074Z,19.04
2022-09-17T12:05:31.170Z,18.99
2022-09-17T12:08:03.949Z,18.99
2022-09-17T12:10:36.700Z,19.23
2022-09-17T12:13:12.163Z,18.74
2022-09-17T12:15:48.698Z,17.21
2022-09-17T12:18:34.770Z,16.82
2022-09-17T12:21:08.129Z,15.59
2022-09-17T12:23:43.716Z,15.36
2022-09-17T12:26:24.829Z,15.00
2022-09-17T12:29:03.412Z,14.71
2022-09-17T12:31:58.649Z,14.96
2022-09-17T12:34:34.002Z,16.14
2022-09-17T12:37:24.011Z,16.66
2022-09-17T12:39:56.870Z,17.41
2022-09-17T12:42:48.022Z,17.94
2022-09-17T12:45:32.420Z,18.38
2022-09-17T12:48:36.376Z,17.45
2022-09-17T12:51:19.477Z,17.29
2022-09-17T12:54:07.741Z,17.30
2022-09-17T12:57:10.085Z,17.59
2022-09-17T12:59:42.860Z,17.37
2022-09-17T13:02:18.246Z,17.42
2022-09-17T13:05:01.011Z,16.99
2022-09-17T13:07:37.253Z,17.31
2022-09-17T13:13:09.616Z,18.06
2022-09-17T13:15:54.227Z,18.39
2022-09-17T13:18:41.729Z,18.59
2022-09-17T13:21:16.655Z,18.54
2022-09-17T13:23:49.615Z,18.42
2022-09-17T13:26:21.808Z,18.43
2022-09-17T13:28:53.161Z,18.10
2022-09-17T13:31:44.683Z,17.57
2022-09-17T13:34:24.803Z,17.21
2022-09-17T13:36:56.340Z,16.95
2022-09-17T13:39:46.637Z,17.16
2022-09-17T13:42:35.406Z,17.05
2022-09-17T13:45:15.049Z,16.90
2022-09-17T13:48:06.003Z,17.46
2022-09-17T13:50:44.103Z,17.89
2022-09-17T13:53:21.941Z,17.13
2022-09-17T13:55:54.730Z,17.49
2022-09-17T13:58:30.267Z,17.40
2022-09-17T14:01:08.169Z,17.16
2022-09-17T14:03:48.384Z,17.21
2022-09-17T14:06:26.716Z,17.35
2022-09-17T14:08:57.810Z,17.72
2022-09-17T14:11:30.592Z,17.77
2022-09-17T14:14:06.273Z,17.96
2022-09-17T14:16:47.471Z,18.50
2022-09-17T14:19:23.037Z,18.26
2022-09-17T14:22:04.236Z,19.31
2022-09-17T14:24:39.576Z,18.58
2022-09-17T14:27:12.359Z,18.70
2022-09-17T14:29:59.727Z,17.79
2022-09-17T14:32:33.092Z,17.91
2022-09-17T14:35:06.140Z,17.67
2022-09-17T14:37:36.281Z,17.74
2022-09-17T14:40:14.089Z,17.95
2022-09-17T14:42:45.014Z,17.85
2022-09-17T14:45:20.687Z,17.47
2022-09-17T14:47:50.404Z,17.19
2022-09-17T14:50:22.362Z,16.97
2022-09-17T14:52:54.851Z,16.94
2022-09-17T14:55:26.842Z,17.31
2022-09-17T14:58:00.897Z,17.80
2022-09-17T15:00:33.990Z,17.30
2022-09-17T15:03:03.927Z,17.30
2022-09-17T15:05:42.657Z,17.33
2022-09-17T15:08:21.955Z,16.97
2022-09-17T15:10:54.766Z,17.05
2022-09-17T15:13:30.526Z,17.66
2022-09-17T15:16:11.157Z,17.50
2022-09-17T15:18:46.640Z,17.50
2022-09-17T15:24:35.870Z,17.94
2022-09-17T15:27:18.475Z,18.09
2022-09-17T15:29:51.152Z,18.09
2022-09-17T15:32:20.914Z,18.31
2022-09-17T15:35:17.269Z,18.31
2022-09-17T15:40:29.543Z,18.62
2022-09-17T15:43:20.015Z,18.80
2022-09-17T15:45:49.789Z,19.21
2022-09-17T15:48:38.075Z,18.69
2022-09-17T15:51:11.158Z,18.66
2022-09-17T15:53:42.414Z,18.82
2022-09-17T15:56:17.733Z,18.60
2022-09-17T15:58:50.498Z,18.94
2022-09-17T16:01:23.363Z,18.40
2022-09-17T16:04:04.898Z,18.59
2022-09-17T16:06:37.361Z,18.78
2022-09-17T16:09:10.170Z,18.70
2022-09-17T16:11:41.521Z,18.33
2022-09-17T16:14:11.712Z,18.28
2022-09-17T16:16:41.510Z,18.57
2022-09-17T16:19:11.331Z,18.21
2022-09-17T16:21:41.080Z,18.35
2022-09-17T16:24:11.241Z,18.05
2022-09-17T16:26:41.789Z,18.26
2022-09-17T16:29:17.077Z,18.23
2022-09-17T16:31:46.874Z,17.98
2022-09-17T16:34:16.701Z,17.62
2022-09-17T16:36:46.158Z,17.70
2022-09-17T16:39:16.195Z,17.69
2022-09-17T16:41:45.935Z,17.34
2022-09-17T16:44:15.677Z,17.70
2022-09-17T16:46:45.217Z,17.53
2022-09-17T16:49:16.631Z,17.15
2022-09-17T16:51:46.399Z,17.34
2022-09-17T16:54:16.075Z,17.05
2022-09-17T16:56:45.883Z,16.95
2022-09-17T16:59:15.830Z,16.91
2022-09-17T17:01:45.567Z,16.72
2022-09-17T17:04:14.988Z,16.56
2022-09-17T17:06:44.713Z,16.61
2022-09-17T17:09:14.516Z,16.61
2022-09-17T17:11:44.710Z,16.27
2022-09-17T17:14:15.057Z,16.46
2022-09-17T17:16:45.445Z,16.10
2022-09-17T17:19:15.174Z,16.01
2022-09-17T17:21:47.301Z,15.99
2022-09-17T17:24:16.940Z,15.76
2022-09-17T17:26:48.121Z,15.67
2022-09-17T17:32:05.526Z,15.11
2022-09-17T17:34:35.000Z,15.09
2022-09-17T17:37:04.474Z,14.83
2022-09-17T17:39:34.280Z,14.83
2022-09-17T17:42:06.858Z,14.37
2022-09-17T17:44:36.578Z,14.56
2022-09-17T17:47:06.721Z,13.97
2022-09-17T17:49:36.739Z,14.08
2022-09-17T17:52:08.155Z,13.89
2022-09-17T17:54:37.876Z,13.77
2022-09-17T17:57:07.643Z,13.62
2022-09-17T17:59:37.063Z,13.68
2022-09-17T18:02:10.344Z,13.41
2022-09-17T18:04:40.073Z,13.71
2022-09-17T18:07:09.803Z,13.60
2022-09-17T18:09:39.715Z,13.52
2022-09-17T18:12:11.198Z,13.44
2022-09-17T18:14:40.925Z,13.25
2022-09-17T18:17:10.677Z,13.45
2022-09-17T18:19:40.683Z,13.45
2022-09-17T18:22:11.264Z,13.26
2022-09-17T18:24:41.011Z,13.36
2022-09-17T18:27:10.803Z,13.54
2022-09-17T18:29:40.552Z,13.55
2022-09-17T18:32:11.400Z,13.68
2022-09-17T18:34:42.608Z,13.75
2022-09-17T18:37:12.062Z,13.43
2022-09-17T18:39:58.109Z,13.04
2022-09-17T18:42:13.451Z,13.31
2022-09-17T18:44:43.176Z,13.05
2022-09-17T18:47:12.892Z,13.03
2022-09-17T18:49:42.919Z,13.12
2022-09-17T18:52:12.654Z,13.12
2022-09-17T18:54:42.757Z,12.75
2022-09-17T18:57:13.169Z,12.81
2022-09-17T18:59:43.016Z,12.93
2022-09-17T19:02:13.678Z,12.94
2022-09-17T19:04:43.702Z,12.89
2022-09-17T19:07:13.893Z,12.91
2022-09-17T19:09:43.660Z,13.06
2022-09-17T19:12:13.387Z,12.72
2022-09-17T19:14:43.133Z,12.62
2022-09-17T19:17:12.639Z,12.76
2022-09-17T19:19:42.669Z,12.44
2022-09-17T19:22:12.395Z,12.44
2022-09-17T19:24:42.102Z,12.47
2022-09-17T19:27:11.901Z,12.53
2022-09-17T19:29:41.630Z,12.55
2022-09-17T19:32:11.547Z,12.40
2022-09-17T19:34:42.566Z,12.32
2022-09-17T19:37:12.476Z,12.30
2022-09-17T19:39:42.214Z,12.47
2022-09-17T19:42:12.338Z,12.73
2022-09-17T19:44:42.073Z,12.41
2022-09-17T19:47:11.790Z,12.41
2022-09-17T19:49:41.547Z,12.50
2022-09-17T19:52:11.548Z,12.44
2022-09-17T19:54:41.322Z,12.55
2022-09-17T19:57:11.100Z,12.33
2022-09-17T19:59:40.825Z,12.49
2022-09-17T20:02:14.457Z,12.42
2022-09-17T20:04:44.220Z,12.30
2022-09-17T20:07:13.960Z,12.18
2022-09-17T20:09:44.097Z,12.36
2022-09-17T20:12:13.506Z,12.24
2022-09-17T20:14:43.376Z,12.18
2022-09-17T20:17:13.791Z,12.24
2022-09-17T20:19:43.481Z,12.07
2022-09-17T20:22:13.233Z,12.25
2022-09-17T20:24:45.588Z,12.15
2022-09-17T20:27:14.782Z,12.27
2022-09-17T20:29:44.269Z,12.42
2022-09-17T20:32:14.359Z,12.34
2022-09-17T20:34:44.077Z,12.17
2022-09-17T20:37:14.070Z,12.23
2022-09-17T20:39:44.817Z,12.42
2022-09-17T20:42:14.353Z,12.20
2022-09-17T20:44:44.095Z,12.31
2022-09-17T20:47:14.143Z,12.33
2022-09-17T20:49:43.870Z,12.33
2022-09-17T20:52:16.802Z,12.37
2022-09-17T20:54:45.043Z,12.37
2022-09-17T20:57:14.942Z,12.21
2022-09-17T20:59:55.378Z,12.14
2022-09-17T21:02:25.427Z,11.98
2022-09-17T21:04:55.138Z,11.98
2022-09-17T21:07:24.904Z,12.18
2022-09-17T21:09:54.638Z,12.09
2022-09-17T21:12:27.615Z,12.35
2022-09-17T21:14:56.192Z,12.42
2022-09-17T21:17:25.936Z,12.44
2022-09-17T21:19:55.697Z,12.39
2022-09-17T21:22:25.447Z,12.35
2022-09-17T21:24:55.206Z,12.46
2022-09-17T21:27:24.961Z,12.25
2022-09-17T21:29:54.720Z,12.30
2022-09-17T21:32:24.568Z,12.12
2022-09-17T21:34:54.318Z,12.53
2022-09-17T21:37:27.181Z,12.57
2022-09-17T21:39:56.933Z,12.24
2022-09-17T21:42:26.744Z,12.40
2022-09-17T21:44:56.516Z,12.44
2022-09-17T21:47:26.542Z,12.48
2022-09-17T21:49:56.584Z,12.31
2022-09-17T21:52:26.323Z,12.42
2022-09-17T21:54:56.056Z,12.41
2022-09-17T21:57:25.805Z,12.50
2022-09-17T21:59:55.531Z,12.39
2022-09-17T22:02:27.170Z,12.52
2022-09-17T22:04:56.966Z,12.52
2022-09-17T22:07:26.779Z,12.62
2022-09-17T22:09:56.517Z,12.73
2022-09-17T22:12:26.384Z,12.79
2022-09-17T22:14:56.247Z,12.47
2022-09-17T22:17:26.024Z,12.50
2022-09-17T22:19:55.784Z,12.58
2022-09-17T22:22:25.441Z,12.70
2022-09-17T22:24:55.644Z,12.52
2022-09-17T22:27:25.456Z,12.36
2022-09-17T22:29:55.209Z,12.60
2022-09-17T22:32:24.642Z,12.61
2022-09-17T22:34:54.937Z,12.73
2022-09-17T22:37:24.664Z,12.42
2022-09-17T22:39:54.902Z,12.71
2022-09-17T22:42:24.686Z,12.73
2022-09-17T22:44:54.707Z,12.54
2022-09-17T22:47:24.441Z,12.59
2022-09-17T22:49:54.189Z,12.81
2022-09-17T22:52:24.148Z,12.63
2022-09-17T22:54:53.883Z,12.74
2022-09-17T22:57:23.655Z,12.69
2022-09-17T22:59:53.683Z,12.55
2022-09-17T23:02:23.214Z,12.86
2022-09-17T23:04:52.947Z,12.90
2022-09-17T23:07:22.679Z,12.88
2022-09-17T23:09:52.480Z,12.77
2022-09-17T23:12:21.916Z,12.80
2022-09-17T23:14:52.152Z,12.86
2022-09-17T23:17:24.932Z,12.83
2022-09-17T23:19:53.399Z,12.74
2022-09-17T23:22:23.102Z,12.57
2022-09-17T23:24:52.839Z,12.73
2022-09-17T23:27:22.919Z,12.57
2022-09-17T23:29:52.674Z,12.53
2022-09-17T23:32:22.106Z,12.57
2022-09-17T23:34:53.520Z,12.52
2022-09-17T23:37:23.541Z,12.69
2022-09-17T23:39:53.658Z,12.68
2022-09-17T23:42:23.392Z,12.57
2022-09-17T23:44:53.125Z,12.56
2022-09-17T23:47:22.938Z,12.92
2022-09-17T23:49:53.143Z,12.92
2022-09-17T23:52:23.088Z,12.97
2022-09-17T23:54:56.464Z,12.82
2022-09-17T23:57:25.492Z,12.84
2022-09-17T23:59:55.506Z,12.62
